Decoded Metar for KBED (BEDFORD in MA, USA) (IATA:BED) | Meteo·Mobile Aviation Weather
aviador You're here:

KBED Decoded Metar

BEDFORD in MA, USA
Report Time2018-10-20 12:56:00
UTC Time2018-10-20 13:47:13
Flight Rules mvfr MVFR
Wind220° at 10 Gusting to 18 kt
W.Decomp.*RWY 23: 9.9 kt HW 1.0 kt RCW
RWY 29: 5.9 kt HW 8.1 kt LCW
W.Rank220° ranks 2
Current wind is above 220° avg. (7.3)
Visibility9999 m
Phenomena:N/A
Clouds:Broken 029 Hf
Overcast 045 Hf
Expected CloudBase > 2,400 ft AGL from Temp-Dew spread
Ceiling2,900 ft
Temp14°C (ISA -1)
Dew Point08°C (67% RH)
AAT9.9°C
QNH1004 hPa
Density Alt535 ft
Elevation164 ft
Report Wrong Elevation
Raw Report
KBED 201256Z 22010G18KT 10SM BKN029 OVC045 14/08 A2966 RMK AO2
SLP056 T01390078=

Extra information for KBED:More info

Metar Taf Metar & Taf Last 4 Metars F.Rules Stats Wind Profile Meteogram Temp Stats Airport Information Weather charts Add Link Nearby VenuesMetar ALERT Operation Metar Decoded Social comments

AIRNAV info for KBED